sensor_id;sensor_type;location;lat;lon;timestamp;P1;durP1;ratioP1;P2;durP2;ratioP2
22260;SDS011;11299;43.202;27.920;2022-09-09T00:03:51;6.15;;;2.50;;
22260;SDS011;11299;43.202;27.920;2022-09-09T00:08:53;2.45;;;1.55;;
22260;SDS011;11299;43.202;27.920;2022-09-09T00:12:06;5.93;;;2.28;;
22260;SDS011;11299;43.202;27.920;2022-09-09T00:16:57;2.67;;;1.90;;
22260;SDS011;11299;43.202;27.920;2022-09-09T00:27:49;3.60;;;2.03;;
22260;SDS011;11299;43.202;27.920;2022-09-09T00:37:56;5.35;;;2.03;;
22260;SDS011;11299;43.202;27.920;2022-09-09T00:40:34;3.80;;;2.13;;
22260;SDS011;11299;43.202;27.920;2022-09-09T00:57:23;3.25;;;2.13;;
22260;SDS011;11299;43.202;27.920;2022-09-09T01:07:55;4.57;;;2.47;;
22260;SDS011;11299;43.202;27.920;2022-09-09T01:10:39;3.42;;;1.83;;
22260;SDS011;11299;43.202;27.920;2022-09-09T01:13:19;3.25;;;1.98;;
22260;SDS011;11299;43.202;27.920;2022-09-09T01:15:49;2.42;;;1.90;;
22260;SDS011;11299;43.202;27.920;2022-09-09T01:18:19;3.03;;;2.10;;
22260;SDS011;11299;43.202;27.920;2022-09-09T01:26:37;3.92;;;2.00;;
22260;SDS011;11299;43.202;27.920;2022-09-09T01:29:07;4.20;;;2.40;;
22260;SDS011;11299;43.202;27.920;2022-09-09T01:31:41;3.72;;;2.25;;
22260;SDS011;11299;43.202;27.920;2022-09-09T01:34:21;3.38;;;2.17;;
22260;SDS011;11299;43.202;27.920;2022-09-09T01:39:29;3.53;;;2.25;;
22260;SDS011;11299;43.202;27.920;2022-09-09T01:41:56;6.53;;;2.97;;
22260;SDS011;11299;43.202;27.920;2022-09-09T01:44:22;4.20;;;2.08;;
22260;SDS011;11299;43.202;27.920;2022-09-09T01:46:50;4.70;;;2.67;;
22260;SDS011;11299;43.202;27.920;2022-09-09T01:49:16;4.95;;;2.40;;
22260;SDS011;11299;43.202;27.920;2022-09-09T01:51:42;6.38;;;2.45;;
22260;SDS011;11299;43.202;27.920;2022-09-09T01:54:08;4.80;;;2.13;;
22260;SDS011;11299;43.202;27.920;2022-09-09T01:59:28;5.75;;;3.10;;
22260;SDS011;11299;43.202;27.920;2022-09-09T02:04:53;4.53;;;2.92;;
22260;SDS011;11299;43.202;27.920;2022-09-09T02:07:38;3.88;;;2.90;;
22260;SDS011;11299;43.202;27.920;2022-09-09T02:10:40;6.03;;;3.00;;
22260;SDS011;11299;43.202;27.920;2022-09-09T02:13:04;3.28;;;2.38;;
22260;SDS011;11299;43.202;27.920;2022-09-09T02:18:07;5.60;;;2.35;;
22260;SDS011;11299;43.202;27.920;2022-09-09T02:20:38;4.93;;;2.78;;
22260;SDS011;11299;43.202;27.920;2022-09-09T02:23:07;4.70;;;2.53;;
22260;SDS011;11299;43.202;27.920;2022-09-09T02:25:36;3.78;;;2.63;;
22260;SDS011;11299;43.202;27.920;2022-09-09T02:28:03;6.53;;;2.60;;
22260;SDS011;11299;43.202;27.920;2022-09-09T02:33:02;5.65;;;3.05;;
22260;SDS011;11299;43.202;27.920;2022-09-09T02:35:31;5.97;;;2.80;;
22260;SDS011;11299;43.202;27.920;2022-09-09T02:38:02;4.00;;;2.50;;
22260;SDS011;11299;43.202;27.920;2022-09-09T02:40:31;4.82;;;2.70;;
22260;SDS011;11299;43.202;27.920;2022-09-09T02:42:57;6.72;;;2.85;;
22260;SDS011;11299;43.202;27.920;2022-09-09T02:45:25;6.25;;;2.78;;
22260;SDS011;11299;43.202;27.920;2022-09-09T02:50:42;3.13;;;2.13;;
22260;SDS011;11299;43.202;27.920;2022-09-09T02:53:46;3.55;;;2.50;;
22260;SDS011;11299;43.202;27.920;2022-09-09T02:56:20;4.18;;;2.22;;
22260;SDS011;11299;43.202;27.920;2022-09-09T02:58:49;7.82;;;2.70;;
22260;SDS011;11299;43.202;27.920;2022-09-09T03:01:17;5.80;;;2.55;;
22260;SDS011;11299;43.202;27.920;2022-09-09T03:03:43;4.95;;;2.88;;
22260;SDS011;11299;43.202;27.920;2022-09-09T03:06:11;5.82;;;2.58;;
22260;SDS011;11299;43.202;27.920;2022-09-09T03:08:37;6.18;;;2.60;;
22260;SDS011;11299;43.202;27.920;2022-09-09T03:11:03;5.13;;;2.92;;
22260;SDS011;11299;43.202;27.920;2022-09-09T03:13:28;5.07;;;2.80;;
22260;SDS011;11299;43.202;27.920;2022-09-09T03:15:54;8.30;;;2.92;;
22260;SDS011;11299;43.202;27.920;2022-09-09T03:18:20;5.07;;;3.05;;
22260;SDS011;11299;43.202;27.920;2022-09-09T03:20:46;4.25;;;2.95;;
22260;SDS011;11299;43.202;27.920;2022-09-09T03:23:13;5.75;;;2.97;;
22260;SDS011;11299;43.202;27.920;2022-09-09T03:25:39;5.43;;;2.63;;
22260;SDS011;11299;43.202;27.920;2022-09-09T03:28:11;6.65;;;2.80;;
22260;SDS011;11299;43.202;27.920;2022-09-09T03:30:37;7.05;;;2.72;;
22260;SDS011;11299;43.202;27.920;2022-09-09T03:33:02;5.47;;;3.13;;
22260;SDS011;11299;43.202;27.920;2022-09-09T03:35:28;6.28;;;3.05;;
22260;SDS011;11299;43.202;27.920;2022-09-09T03:37:54;5.03;;;3.03;;
22260;SDS011;11299;43.202;27.920;2022-09-09T03:40:20;9.23;;;5.28;;
22260;SDS011;11299;43.202;27.920;2022-09-09T03:42:46;17.42;;;11.52;;
22260;SDS011;11299;43.202;27.920;2022-09-09T03:45:13;7.13;;;3.80;;
22260;SDS011;11299;43.202;27.920;2022-09-09T03:47:38;6.57;;;3.20;;
22260;SDS011;11299;43.202;27.920;2022-09-09T03:50:05;6.93;;;3.70;;
22260;SDS011;11299;43.202;27.920;2022-09-09T03:52:38;10.38;;;4.65;;
22260;SDS011;11299;43.202;27.920;2022-09-09T03:55:05;5.95;;;3.67;;
22260;SDS011;11299;43.202;27.920;2022-09-09T03:57:31;8.05;;;3.60;;
22260;SDS011;11299;43.202;27.920;2022-09-09T04:00:00;10.88;;;4.07;;
22260;SDS011;11299;43.202;27.920;2022-09-09T04:02:28;12.95;;;4.10;;
22260;SDS011;11299;43.202;27.920;2022-09-09T04:04:53;8.05;;;4.05;;
22260;SDS011;11299;43.202;27.920;2022-09-09T04:07:19;9.48;;;4.50;;
22260;SDS011;11299;43.202;27.920;2022-09-09T04:09:44;10.18;;;3.95;;
22260;SDS011;11299;43.202;27.920;2022-09-09T04:12:10;9.55;;;4.00;;
22260;SDS011;11299;43.202;27.920;2022-09-09T04:14:38;11.32;;;4.22;;
22260;SDS011;11299;43.202;27.920;2022-09-09T04:17:04;11.52;;;4.38;;
22260;SDS011;11299;43.202;27.920;2022-09-09T04:19:31;11.20;;;4.18;;
22260;SDS011;11299;43.202;27.920;2022-09-09T04:21:57;7.88;;;3.40;;
22260;SDS011;11299;43.202;27.920;2022-09-09T04:24:23;7.10;;;3.53;;
22260;SDS011;11299;43.202;27.920;2022-09-09T04:26:49;10.15;;;4.25;;
22260;SDS011;11299;43.202;27.920;2022-09-09T04:29:15;9.45;;;4.13;;
22260;SDS011;11299;43.202;27.920;2022-09-09T04:31:41;6.45;;;3.47;;
22260;SDS011;11299;43.202;27.920;2022-09-09T04:34:08;7.60;;;3.90;;
22260;SDS011;11299;43.202;27.920;2022-09-09T04:36:34;9.55;;;3.72;;
22260;SDS011;11299;43.202;27.920;2022-09-09T04:39:01;7.78;;;3.28;;
22260;SDS011;11299;43.202;27.920;2022-09-09T04:41:27;8.18;;;3.45;;
22260;SDS011;11299;43.202;27.920;2022-09-09T04:43:53;11.43;;;2.65;;
22260;SDS011;11299;43.202;27.920;2022-09-09T04:46:20;8.10;;;3.90;;
22260;SDS011;11299;43.202;27.920;2022-09-09T04:48:48;11.05;;;4.15;;
22260;SDS011;11299;43.202;27.920;2022-09-09T04:51:14;12.00;;;4.10;;
22260;SDS011;11299;43.202;27.920;2022-09-09T04:53:40;9.98;;;3.63;;
22260;SDS011;11299;43.202;27.920;2022-09-09T04:56:10;8.48;;;3.53;;
22260;SDS011;11299;43.202;27.920;2022-09-09T04:58:37;9.37;;;3.73;;
22260;SDS011;11299;43.202;27.920;2022-09-09T05:01:05;10.65;;;3.22;;
22260;SDS011;11299;43.202;27.920;2022-09-09T05:03:34;1.70;;;1.50;;
22260;SDS011;11299;43.202;27.920;2022-09-09T05:06:07;5.72;;;1.90;;
22260;SDS011;11299;43.202;27.920;2022-09-09T05:08:35;4.55;;;1.70;;
22260;SDS011;11299;43.202;27.920;2022-09-09T05:11:02;8.60;;;2.47;;
22260;SDS011;11299;43.202;27.920;2022-09-09T05:13:28;5.13;;;1.98;;
22260;SDS011;11299;43.202;27.920;2022-09-09T05:15:54;4.07;;;2.13;;
22260;SDS011;11299;43.202;27.920;2022-09-09T05:18:20;4.68;;;1.85;;
22260;SDS011;11299;43.202;27.920;2022-09-09T05:20:47;5.43;;;2.28;;
22260;SDS011;11299;43.202;27.920;2022-09-09T05:23:14;5.95;;;2.03;;
22260;SDS011;11299;43.202;27.920;2022-09-09T05:25:39;3.58;;;1.73;;
22260;SDS011;11299;43.202;27.920;2022-09-09T05:28:08;5.35;;;2.40;;
22260;SDS011;11299;43.202;27.920;2022-09-09T05:30:34;4.45;;;1.55;;
22260;SDS011;11299;43.202;27.920;2022-09-09T05:32:59;5.55;;;1.80;;
22260;SDS011;11299;43.202;27.920;2022-09-09T05:35:26;5.38;;;1.67;;
22260;SDS011;11299;43.202;27.920;2022-09-09T05:37:52;6.53;;;2.00;;
22260;SDS011;11299;43.202;27.920;2022-09-09T05:40:18;3.08;;;1.67;;
22260;SDS011;11299;43.202;27.920;2022-09-09T05:42:43;3.78;;;1.50;;
22260;SDS011;11299;43.202;27.920;2022-09-09T05:45:09;5.35;;;1.60;;
22260;SDS011;11299;43.202;27.920;2022-09-09T05:47:35;5.63;;;1.52;;
22260;SDS011;11299;43.202;27.920;2022-09-09T05:50:02;4.90;;;2.03;;
22260;SDS011;11299;43.202;27.920;2022-09-09T05:52:29;7.15;;;2.13;;
22260;SDS011;11299;43.202;27.920;2022-09-09T05:54:54;7.43;;;1.60;;
22260;SDS011;11299;43.202;27.920;2022-09-09T05:57:22;3.00;;;1.60;;
22260;SDS011;11299;43.202;27.920;2022-09-09T05:59:47;3.90;;;1.70;;
22260;SDS011;11299;43.202;27.920;2022-09-09T06:02:13;4.55;;;1.70;;
22260;SDS011;11299;43.202;27.920;2022-09-09T06:04:39;3.33;;;1.70;;
22260;SDS011;11299;43.202;27.920;2022-09-09T06:07:05;2.20;;;1.83;;
22260;SDS011;11299;43.202;27.920;2022-09-09T06:09:30;5.50;;;2.50;;
22260;SDS011;11299;43.202;27.920;2022-09-09T06:11:56;4.65;;;1.50;;
22260;SDS011;11299;43.202;27.920;2022-09-09T06:14:23;3.67;;;1.67;;
22260;SDS011;11299;43.202;27.920;2022-09-09T06:16:50;6.40;;;1.90;;
22260;SDS011;11299;43.202;27.920;2022-09-09T06:19:16;6.32;;;1.88;;
22260;SDS011;11299;43.202;27.920;2022-09-09T06:21:42;4.57;;;1.80;;
22260;SDS011;11299;43.202;27.920;2022-09-09T06:24:09;6.32;;;1.85;;
22260;SDS011;11299;43.202;27.920;2022-09-09T06:26:36;3.78;;;1.85;;
22260;SDS011;11299;43.202;27.920;2022-09-09T06:29:06;4.82;;;1.67;;
22260;SDS011;11299;43.202;27.920;2022-09-09T06:31:33;4.50;;;1.70;;
22260;SDS011;11299;43.202;27.920;2022-09-09T06:34:02;4.88;;;1.73;;
22260;SDS011;11299;43.202;27.920;2022-09-09T06:36:34;2.65;;;1.60;;
22260;SDS011;11299;43.202;27.920;2022-09-09T06:39:02;2.42;;;1.38;;
22260;SDS011;11299;43.202;27.920;2022-09-09T06:41:28;6.55;;;1.70;;
22260;SDS011;11299;43.202;27.920;2022-09-09T06:43:56;5.15;;;1.75;;
22260;SDS011;11299;43.202;27.920;2022-09-09T06:46:25;2.85;;;1.70;;
22260;SDS011;11299;43.202;27.920;2022-09-09T06:48:52;7.00;;;1.60;;
22260;SDS011;11299;43.202;27.920;2022-09-09T06:51:20;4.20;;;1.58;;
22260;SDS011;11299;43.202;27.920;2022-09-09T06:53:49;3.95;;;2.15;;
22260;SDS011;11299;43.202;27.920;2022-09-09T06:58:41;3.70;;;1.30;;
22260;SDS011;11299;43.202;27.920;2022-09-09T07:01:17;2.88;;;1.23;;
22260;SDS011;11299;43.202;27.920;2022-09-09T07:03:54;2.55;;;1.50;;
22260;SDS011;11299;43.202;27.920;2022-09-09T07:06:22;5.88;;;1.95;;
22260;SDS011;11299;43.202;27.920;2022-09-09T07:08:52;5.97;;;1.63;;
22260;SDS011;11299;43.202;27.920;2022-09-09T07:11:29;5.78;;;1.70;;
22260;SDS011;11299;43.202;27.920;2022-09-09T07:13:57;3.00;;;1.50;;
22260;SDS011;11299;43.202;27.920;2022-09-09T07:16:24;3.35;;;1.40;;
22260;SDS011;11299;43.202;27.920;2022-09-09T07:18:50;2.75;;;1.63;;
22260;SDS011;11299;43.202;27.920;2022-09-09T07:21:23;3.92;;;1.95;;
22260;SDS011;11299;43.202;27.920;2022-09-09T07:23:51;3.38;;;1.58;;
22260;SDS011;11299;43.202;27.920;2022-09-09T07:26:17;2.97;;;1.58;;
22260;SDS011;11299;43.202;27.920;2022-09-09T07:28:44;4.25;;;1.55;;
22260;SDS011;11299;43.202;27.920;2022-09-09T07:31:15;6.40;;;1.52;;
22260;SDS011;11299;43.202;27.920;2022-09-09T07:33:45;4.82;;;1.60;;
22260;SDS011;11299;43.202;27.920;2022-09-09T07:36:20;1.95;;;1.40;;
22260;SDS011;11299;43.202;27.920;2022-09-09T07:38:54;5.80;;;1.33;;
22260;SDS011;11299;43.202;27.920;2022-09-09T07:41:29;4.97;;;1.50;;
22260;SDS011;11299;43.202;27.920;2022-09-09T07:43:59;3.35;;;1.48;;
22260;SDS011;11299;43.202;27.920;2022-09-09T07:46:29;4.55;;;1.30;;
22260;SDS011;11299;43.202;27.920;2022-09-09T07:48:55;5.00;;;1.60;;
22260;SDS011;11299;43.202;27.920;2022-09-09T07:51:25;3.65;;;1.38;;
22260;SDS011;11299;43.202;27.920;2022-09-09T07:56:20;3.15;;;1.48;;
22260;SDS011;11299;43.202;27.920;2022-09-09T07:58:49;2.15;;;1.35;;
22260;SDS011;11299;43.202;27.920;2022-09-09T08:01:17;6.47;;;1.40;;
22260;SDS011;11299;43.202;27.920;2022-09-09T08:03:45;4.47;;;1.48;;
22260;SDS011;11299;43.202;27.920;2022-09-09T08:06:12;2.65;;;1.60;;
22260;SDS011;11299;43.202;27.920;2022-09-09T08:08:39;3.80;;;1.30;;
22260;SDS011;11299;43.202;27.920;2022-09-09T08:11:15;4.40;;;1.48;;
22260;SDS011;11299;43.202;27.920;2022-09-09T08:13:42;3.13;;;1.40;;
22260;SDS011;11299;43.202;27.920;2022-09-09T08:16:10;2.55;;;1.30;;
22260;SDS011;11299;43.202;27.920;2022-09-09T08:18:40;1.55;;;1.00;;
22260;SDS011;11299;43.202;27.920;2022-09-09T08:23:37;3.13;;;1.40;;
22260;SDS011;11299;43.202;27.920;2022-09-09T08:26:24;5.60;;;1.42;;
22260;SDS011;11299;43.202;27.920;2022-09-09T08:28:54;4.88;;;1.55;;
22260;SDS011;11299;43.202;27.920;2022-09-09T08:31:25;2.05;;;1.50;;
22260;SDS011;11299;43.202;27.920;2022-09-09T08:33:59;4.53;;;1.80;;
22260;SDS011;11299;43.202;27.920;2022-09-09T08:36:28;4.50;;;1.27;;
22260;SDS011;11299;43.202;27.920;2022-09-09T08:38:56;4.55;;;1.50;;
22260;SDS011;11299;43.202;27.920;2022-09-09T08:44:10;4.85;;;1.42;;
22260;SDS011;11299;43.202;27.920;2022-09-09T08:50:13;1.80;;;1.33;;
22260;SDS011;11299;43.202;27.920;2022-09-09T08:52:46;4.07;;;1.52;;
22260;SDS011;11299;43.202;27.920;2022-09-09T08:58:02;5.18;;;1.63;;
22260;SDS011;11299;43.202;27.920;2022-09-09T09:00:47;2.22;;;1.65;;
22260;SDS011;11299;43.202;27.920;2022-09-09T09:09:36;3.67;;;2.00;;
22260;SDS011;11299;43.202;27.920;2022-09-09T09:12:35;3.85;;;1.55;;
22260;SDS011;11299;43.202;27.920;2022-09-09T09:15:11;3.95;;;2.10;;
22260;SDS011;11299;43.202;27.920;2022-09-09T09:17:43;6.10;;;2.55;;
22260;SDS011;11299;43.202;27.920;2022-09-09T09:20:12;5.72;;;2.58;;
22260;SDS011;11299;43.202;27.920;2022-09-09T09:22:50;4.88;;;1.90;;
22260;SDS011;11299;43.202;27.920;2022-09-09T09:25:25;5.78;;;2.58;;
22260;SDS011;11299;43.202;27.920;2022-09-09T09:28:15;4.55;;;2.67;;
22260;SDS011;11299;43.202;27.920;2022-09-09T09:30:53;5.75;;;2.58;;
22260;SDS011;11299;43.202;27.920;2022-09-09T09:33:34;7.10;;;3.15;;
22260;SDS011;11299;43.202;27.920;2022-09-09T09:36:11;6.53;;;2.33;;
22260;SDS011;11299;43.202;27.920;2022-09-09T09:38:40;3.50;;;2.20;;
22260;SDS011;11299;43.202;27.920;2022-09-09T09:44:00;9.85;;;3.85;;
22260;SDS011;11299;43.202;27.920;2022-09-09T09:46:27;5.90;;;3.00;;
22260;SDS011;11299;43.202;27.920;2022-09-09T09:49:11;3.13;;;1.90;;
22260;SDS011;11299;43.202;27.920;2022-09-09T09:51:38;4.80;;;2.95;;
22260;SDS011;11299;43.202;27.920;2022-09-09T09:54:16;4.47;;;2.55;;
22260;SDS011;11299;43.202;27.920;2022-09-09T09:56:46;4.18;;;1.80;;
22260;SDS011;11299;43.202;27.920;2022-09-09T10:01:53;3.60;;;1.80;;
22260;SDS011;11299;43.202;27.920;2022-09-09T10:04:19;3.03;;;1.85;;
22260;SDS011;11299;43.202;27.920;2022-09-09T10:06:49;4.55;;;1.75;;
22260;SDS011;11299;43.202;27.920;2022-09-09T10:09:30;4.28;;;1.50;;
22260;SDS011;11299;43.202;27.920;2022-09-09T10:17:21;3.03;;;1.77;;
22260;SDS011;11299;43.202;27.920;2022-09-09T10:22:50;4.38;;;1.85;;
22260;SDS011;11299;43.202;27.920;2022-09-09T10:25:31;4.82;;;2.03;;
22260;SDS011;11299;43.202;27.920;2022-09-09T10:36:49;6.40;;;2.30;;
22260;SDS011;11299;43.202;27.920;2022-09-09T10:47:15;4.63;;;2.10;;
22260;SDS011;11299;43.202;27.920;2022-09-09T10:53:14;2.33;;;1.70;;
22260;SDS011;11299;43.202;27.920;2022-09-09T10:55:51;6.30;;;2.53;;
22260;SDS011;11299;43.202;27.920;2022-09-09T10:58:25;8.47;;;2.87;;
22260;SDS011;11299;43.202;27.920;2022-09-09T11:01:00;2.78;;;1.90;;
22260;SDS011;11299;43.202;27.920;2022-09-09T11:03:34;3.85;;;1.55;;
22260;SDS011;11299;43.202;27.920;2022-09-09T11:06:04;4.95;;;1.80;;
22260;SDS011;11299;43.202;27.920;2022-09-09T11:08:36;8.80;;;2.03;;
22260;SDS011;11299;43.202;27.920;2022-09-09T11:18:54;3.47;;;1.60;;
22260;SDS011;11299;43.202;27.920;2022-09-09T11:21:27;5.03;;;1.58;;
22260;SDS011;11299;43.202;27.920;2022-09-09T11:24:00;3.65;;;1.55;;
22260;SDS011;11299;43.202;27.920;2022-09-09T11:26:38;4.32;;;1.90;;
22260;SDS011;11299;43.202;27.920;2022-09-09T11:42:26;2.65;;;1.52;;
22260;SDS011;11299;43.202;27.920;2022-09-09T11:44:52;9.35;;;2.35;;
22260;SDS011;11299;43.202;27.920;2022-09-09T11:47:26;7.43;;;1.80;;
22260;SDS011;11299;43.202;27.920;2022-09-09T11:52:41;5.85;;;2.03;;
22260;SDS011;11299;43.202;27.920;2022-09-09T11:57:48;4.85;;;2.70;;
22260;SDS011;11299;43.202;27.920;2022-09-09T12:00:46;4.32;;;2.45;;
22260;SDS011;11299;43.202;27.920;2022-09-09T12:06:27;8.32;;;2.13;;
22260;SDS011;11299;43.202;27.920;2022-09-09T12:09:05;4.80;;;2.05;;
22260;SDS011;11299;43.202;27.920;2022-09-09T12:11:33;4.53;;;1.77;;
22260;SDS011;11299;43.202;27.920;2022-09-09T12:13:59;4.13;;;1.50;;
22260;SDS011;11299;43.202;27.920;2022-09-09T12:16:35;3.65;;;1.70;;
22260;SDS011;11299;43.202;27.920;2022-09-09T12:19:06;3.03;;;1.50;;
22260;SDS011;11299;43.202;27.920;2022-09-09T12:25:09;5.90;;;1.70;;
22260;SDS011;11299;43.202;27.920;2022-09-09T12:28:06;5.70;;;1.90;;
22260;SDS011;11299;43.202;27.920;2022-09-09T12:33:19;7.70;;;2.00;;
22260;SDS011;11299;43.202;27.920;2022-09-09T12:35:46;4.32;;;1.73;;
22260;SDS011;11299;43.202;27.920;2022-09-09T12:38:30;4.15;;;1.40;;
22260;SDS011;11299;43.202;27.920;2022-09-09T12:40:59;6.75;;;1.65;;
22260;SDS011;11299;43.202;27.920;2022-09-09T12:43:25;5.57;;;1.35;;
22260;SDS011;11299;43.202;27.920;2022-09-09T12:45:53;3.42;;;1.48;;
22260;SDS011;11299;43.202;27.920;2022-09-09T12:48:25;7.03;;;1.80;;
22260;SDS011;11299;43.202;27.920;2022-09-09T12:50:56;3.45;;;1.30;;
22260;SDS011;11299;43.202;27.920;2022-09-09T12:53:35;5.05;;;1.70;;
22260;SDS011;11299;43.202;27.920;2022-09-09T12:56:05;4.30;;;1.48;;
22260;SDS011;11299;43.202;27.920;2022-09-09T12:58:33;3.05;;;1.67;;
22260;SDS011;11299;43.202;27.920;2022-09-09T13:01:00;4.95;;;1.50;;
22260;SDS011;11299;43.202;27.920;2022-09-09T13:03:30;2.92;;;1.40;;
22260;SDS011;11299;43.202;27.920;2022-09-09T13:06:10;6.43;;;1.80;;
22260;SDS011;11299;43.202;27.920;2022-09-09T13:08:37;4.07;;;1.80;;
22260;SDS011;11299;43.202;27.920;2022-09-09T13:11:04;7.03;;;2.08;;
22260;SDS011;11299;43.202;27.920;2022-09-09T13:13:36;5.03;;;1.63;;
22260;SDS011;11299;43.202;27.920;2022-09-09T13:16:04;5.07;;;1.70;;
22260;SDS011;11299;43.202;27.920;2022-09-09T13:18:36;4.90;;;1.83;;
22260;SDS011;11299;43.202;27.920;2022-09-09T13:21:05;7.55;;;1.80;;
22260;SDS011;11299;43.202;27.920;2022-09-09T13:23:35;3.95;;;1.80;;
22260;SDS011;11299;43.202;27.920;2022-09-09T13:28:29;6.45;;;1.90;;
22260;SDS011;11299;43.202;27.920;2022-09-09T13:30:56;8.20;;;2.33;;
22260;SDS011;11299;43.202;27.920;2022-09-09T13:33:38;3.13;;;1.60;;
22260;SDS011;11299;43.202;27.920;2022-09-09T13:36:07;7.40;;;2.33;;
22260;SDS011;11299;43.202;27.920;2022-09-09T13:38:37;4.78;;;1.95;;
22260;SDS011;11299;43.202;27.920;2022-09-09T13:41:22;5.78;;;2.47;;
22260;SDS011;11299;43.202;27.920;2022-09-09T13:43:50;5.45;;;2.60;;
22260;SDS011;11299;43.202;27.920;2022-09-09T13:46:36;5.25;;;2.58;;
22260;SDS011;11299;43.202;27.920;2022-09-09T13:51:44;7.03;;;2.42;;
22260;SDS011;11299;43.202;27.920;2022-09-09T13:54:12;7.60;;;2.83;;
22260;SDS011;11299;43.202;27.920;2022-09-09T13:56:40;6.60;;;2.65;;
22260;SDS011;11299;43.202;27.920;2022-09-09T13:59:11;5.05;;;3.00;;
22260;SDS011;11299;43.202;27.920;2022-09-09T14:01:38;8.68;;;2.70;;
22260;SDS011;11299;43.202;27.920;2022-09-09T14:04:04;5.28;;;3.15;;
22260;SDS011;11299;43.202;27.920;2022-09-09T14:06:34;3.92;;;2.70;;
22260;SDS011;11299;43.202;27.920;2022-09-09T14:09:02;6.45;;;3.28;;
22260;SDS011;11299;43.202;27.920;2022-09-09T14:11:28;6.43;;;3.10;;
22260;SDS011;11299;43.202;27.920;2022-09-09T14:13:53;8.48;;;3.33;;
22260;SDS011;11299;43.202;27.920;2022-09-09T14:16:19;6.85;;;3.05;;
22260;SDS011;11299;43.202;27.920;2022-09-09T14:18:46;4.28;;;2.70;;
22260;SDS011;11299;43.202;27.920;2022-09-09T14:21:12;6.40;;;3.15;;
22260;SDS011;11299;43.202;27.920;2022-09-09T14:23:38;7.13;;;2.67;;
22260;SDS011;11299;43.202;27.920;2022-09-09T14:26:06;4.68;;;2.50;;
22260;SDS011;11299;43.202;27.920;2022-09-09T14:28:32;4.18;;;2.90;;
22260;SDS011;11299;43.202;27.920;2022-09-09T14:30:59;7.55;;;2.90;;
22260;SDS011;11299;43.202;27.920;2022-09-09T14:33:26;6.38;;;3.33;;
22260;SDS011;11299;43.202;27.920;2022-09-09T14:36:00;6.55;;;2.70;;
22260;SDS011;11299;43.202;27.920;2022-09-09T14:38:30;6.05;;;2.88;;
22260;SDS011;11299;43.202;27.920;2022-09-09T14:40:59;3.40;;;2.22;;
22260;SDS011;11299;43.202;27.920;2022-09-09T14:43:25;4.78;;;2.30;;
22260;SDS011;11299;43.202;27.920;2022-09-09T14:45:51;6.38;;;2.38;;
22260;SDS011;11299;43.202;27.920;2022-09-09T14:48:17;4.68;;;2.55;;
22260;SDS011;11299;43.202;27.920;2022-09-09T14:50:43;6.53;;;2.97;;
22260;SDS011;11299;43.202;27.920;2022-09-09T14:53:09;5.25;;;3.08;;
22260;SDS011;11299;43.202;27.920;2022-09-09T14:55:35;5.93;;;2.88;;
22260;SDS011;11299;43.202;27.920;2022-09-09T14:58:02;7.18;;;3.50;;
22260;SDS011;11299;43.202;27.920;2022-09-09T15:00:27;6.43;;;2.60;;
22260;SDS011;11299;43.202;27.920;2022-09-09T15:02:53;5.13;;;2.97;;
22260;SDS011;11299;43.202;27.920;2022-09-09T15:05:20;3.50;;;2.20;;
22260;SDS011;11299;43.202;27.920;2022-09-09T15:07:59;5.70;;;2.75;;
22260;SDS011;11299;43.202;27.920;2022-09-09T15:10:27;3.78;;;2.80;;
22260;SDS011;11299;43.202;27.920;2022-09-09T15:12:53;8.75;;;4.00;;
22260;SDS011;11299;43.202;27.920;2022-09-09T15:15:18;6.95;;;2.78;;
22260;SDS011;11299;43.202;27.920;2022-09-09T15:17:44;4.47;;;2.75;;
22260;SDS011;11299;43.202;27.920;2022-09-09T15:20:09;3.90;;;2.58;;
22260;SDS011;11299;43.202;27.920;2022-09-09T15:22:35;4.82;;;2.78;;
22260;SDS011;11299;43.202;27.920;2022-09-09T15:25:02;6.90;;;2.88;;
22260;SDS011;11299;43.202;27.920;2022-09-09T15:27:28;5.10;;;2.85;;
22260;SDS011;11299;43.202;27.920;2022-09-09T15:29:55;5.82;;;2.83;;
22260;SDS011;11299;43.202;27.920;2022-09-09T15:32:21;6.32;;;3.58;;
22260;SDS011;11299;43.202;27.920;2022-09-09T15:34:47;7.30;;;3.08;;
22260;SDS011;11299;43.202;27.920;2022-09-09T15:37:12;5.55;;;3.45;;
22260;SDS011;11299;43.202;27.920;2022-09-09T15:39:39;6.40;;;3.20;;
22260;SDS011;11299;43.202;27.920;2022-09-09T15:42:05;6.40;;;3.38;;
22260;SDS011;11299;43.202;27.920;2022-09-09T15:44:40;7.68;;;3.40;;
22260;SDS011;11299;43.202;27.920;2022-09-09T15:47:07;4.55;;;3.38;;
22260;SDS011;11299;43.202;27.920;2022-09-09T15:49:35;7.53;;;3.40;;
22260;SDS011;11299;43.202;27.920;2022-09-09T15:52:00;8.05;;;3.65;;
22260;SDS011;11299;43.202;27.920;2022-09-09T15:54:33;6.88;;;3.28;;
22260;SDS011;11299;43.202;27.920;2022-09-09T15:57:01;5.00;;;3.40;;
22260;SDS011;11299;43.202;27.920;2022-09-09T15:59:29;10.80;;;4.78;;
22260;SDS011;11299;43.202;27.920;2022-09-09T16:01:56;7.85;;;3.78;;
22260;SDS011;11299;43.202;27.920;2022-09-09T16:04:23;7.28;;;3.95;;
22260;SDS011;11299;43.202;27.920;2022-09-09T16:06:56;8.40;;;4.15;;
22260;SDS011;11299;43.202;27.920;2022-09-09T16:09:27;6.80;;;3.50;;
22260;SDS011;11299;43.202;27.920;2022-09-09T16:11:55;8.07;;;4.18;;
22260;SDS011;11299;43.202;27.920;2022-09-09T16:14:21;10.70;;;5.20;;
22260;SDS011;11299;43.202;27.920;2022-09-09T16:16:47;8.20;;;5.32;;
22260;SDS011;11299;43.202;27.920;2022-09-09T16:19:13;7.65;;;4.85;;
22260;SDS011;11299;43.202;27.920;2022-09-09T16:21:40;10.13;;;5.72;;
22260;SDS011;11299;43.202;27.920;2022-09-09T16:24:08;9.05;;;4.78;;
22260;SDS011;11299;43.202;27.920;2022-09-09T16:26:36;6.32;;;4.75;;
22260;SDS011;11299;43.202;27.920;2022-09-09T16:29:03;11.10;;;6.18;;
22260;SDS011;11299;43.202;27.920;2022-09-09T16:31:29;9.30;;;4.57;;
22260;SDS011;11299;43.202;27.920;2022-09-09T16:33:56;7.13;;;4.63;;
22260;SDS011;11299;43.202;27.920;2022-09-09T16:36:23;9.80;;;5.30;;
22260;SDS011;11299;43.202;27.920;2022-09-09T16:38:55;9.40;;;4.53;;
22260;SDS011;11299;43.202;27.920;2022-09-09T16:41:23;5.70;;;3.60;;
22260;SDS011;11299;43.202;27.920;2022-09-09T16:43:55;7.82;;;3.95;;
22260;SDS011;11299;43.202;27.920;2022-09-09T16:46:24;5.72;;;3.55;;
22260;SDS011;11299;43.202;27.920;2022-09-09T16:48:50;6.55;;;3.80;;
22260;SDS011;11299;43.202;27.920;2022-09-09T16:51:17;8.70;;;4.93;;
22260;SDS011;11299;43.202;27.920;2022-09-09T16:53:45;5.65;;;4.03;;
22260;SDS011;11299;43.202;27.920;2022-09-09T16:56:30;6.93;;;4.40;;
22260;SDS011;11299;43.202;27.920;2022-09-09T16:59:02;7.32;;;3.97;;
22260;SDS011;11299;43.202;27.920;2022-09-09T17:01:31;9.45;;;4.57;;
22260;SDS011;11299;43.202;27.920;2022-09-09T17:03:59;9.32;;;4.18;;
22260;SDS011;11299;43.202;27.920;2022-09-09T17:06:27;7.70;;;4.28;;
22260;SDS011;11299;43.202;27.920;2022-09-09T17:08:54;7.45;;;4.43;;
22260;SDS011;11299;43.202;27.920;2022-09-09T17:11:24;9.55;;;4.68;;
22260;SDS011;11299;43.202;27.920;2022-09-09T17:13:49;11.60;;;5.50;;
22260;SDS011;11299;43.202;27.920;2022-09-09T17:16:16;9.07;;;4.80;;
22260;SDS011;11299;43.202;27.920;2022-09-09T17:18:43;8.68;;;5.30;;
22260;SDS011;11299;43.202;27.920;2022-09-09T17:21:15;8.90;;;5.13;;
22260;SDS011;11299;43.202;27.920;2022-09-09T17:23:43;7.25;;;4.28;;
22260;SDS011;11299;43.202;27.920;2022-09-09T17:26:11;8.43;;;5.22;;
22260;SDS011;11299;43.202;27.920;2022-09-09T17:28:39;8.93;;;5.18;;
22260;SDS011;11299;43.202;27.920;2022-09-09T17:31:06;6.63;;;4.47;;
22260;SDS011;11299;43.202;27.920;2022-09-09T17:33:37;5.80;;;4.65;;